createdAt,value
2023-04-07T00:00:51.085Z,3.29
2023-04-07T00:03:18.207Z,3.31
2023-04-07T00:05:45.038Z,3.31
2023-04-07T00:08:11.928Z,3.36
2023-04-07T00:10:38.838Z,3.33
2023-04-07T00:13:05.851Z,3.40
2023-04-07T00:15:33.020Z,3.24
2023-04-07T00:17:59.982Z,3.17
2023-04-07T00:20:26.995Z,3.06
2023-04-07T00:22:54.032Z,3.01
2023-04-07T00:25:20.935Z,2.92
2023-04-07T00:27:47.803Z,2.80
2023-04-07T00:30:15.567Z,2.69
2023-04-07T00:32:42.594Z,2.57
2023-04-07T00:35:12.487Z,2.61
2023-04-07T00:37:39.289Z,2.60
2023-04-07T00:40:07.065Z,2.76
2023-04-07T00:42:34.381Z,2.82
2023-04-07T00:45:01.524Z,2.76
2023-04-07T00:47:28.461Z,2.74
2023-04-07T00:49:55.606Z,2.69
2023-04-07T00:52:28.796Z,2.65
2023-04-07T00:54:56.064Z,2.67
2023-04-07T00:57:23.033Z,2.61
2023-04-07T00:59:50.954Z,2.53
2023-04-07T01:02:37.474Z,2.61
2023-04-07T01:05:04.519Z,2.54
2023-04-07T01:07:36.404Z,2.49
2023-04-07T01:10:09.877Z,2.46
2023-04-07T01:13:07.026Z,2.54
2023-04-07T01:15:34.333Z,2.64
2023-04-07T01:18:08.893Z,2.74
2023-04-07T01:20:35.877Z,2.76
2023-04-07T01:23:05.816Z,2.74
2023-04-07T01:25:55.196Z,2.68
2023-04-07T01:28:44.889Z,2.57
2023-04-07T01:31:12.623Z,2.48
2023-04-07T01:33:39.943Z,2.43
2023-04-07T01:36:07.331Z,2.40
2023-04-07T01:38:34.289Z,2.37
2023-04-07T01:41:01.220Z,2.32
2023-04-07T01:43:28.567Z,2.27
2023-04-07T01:45:55.646Z,2.15
2023-04-07T01:48:23.072Z,2.06
2023-04-07T01:50:50.397Z,2.01
2023-04-07T01:53:17.520Z,1.92
2023-04-07T01:55:44.409Z,1.90
2023-04-07T01:58:11.663Z,1.95
2023-04-07T02:00:42.112Z,1.96
2023-04-07T02:03:21.268Z,2.06
2023-04-07T02:05:49.771Z,2.02
2023-04-07T02:08:18.511Z,2.01
2023-04-07T02:10:47.095Z,2.00
2023-04-07T02:13:17.097Z,2.01
2023-04-07T02:15:45.428Z,2.06
2023-04-07T02:18:13.467Z,2.00
2023-04-07T02:20:40.527Z,1.94
2023-04-07T02:23:10.485Z,1.84
2023-04-07T02:25:40.161Z,1.72
2023-04-07T02:28:07.361Z,1.57
2023-04-07T02:30:34.569Z,1.46
2023-04-07T02:33:01.523Z,1.40
2023-04-07T02:35:28.595Z,1.38
2023-04-07T02:37:55.521Z,1.30
2023-04-07T02:40:22.527Z,1.33
2023-04-07T02:42:52.333Z,1.31
2023-04-07T02:45:20.195Z,1.35
2023-04-07T02:47:47.039Z,1.29
2023-04-07T02:50:14.867Z,1.20
2023-04-07T02:52:41.856Z,1.12
2023-04-07T02:55:12.429Z,1.03
2023-04-07T02:57:39.402Z,1.08
2023-04-07T03:00:11.854Z,1.17
2023-04-07T03:03:02.117Z,1.17
2023-04-07T03:05:32.610Z,1.32
2023-04-07T03:08:01.357Z,1.33
2023-04-07T03:10:28.697Z,1.33
2023-04-07T03:12:55.853Z,1.38
2023-04-07T03:15:22.884Z,1.43
2023-04-07T03:17:51.071Z,1.52
2023-04-07T03:20:18.358Z,1.60
2023-04-07T03:22:47.368Z,1.57
2023-04-07T03:25:21.771Z,1.62
2023-04-07T03:27:49.754Z,1.63
2023-04-07T03:30:16.795Z,1.70
2023-04-07T03:32:45.524Z,1.68
2023-04-07T03:35:12.507Z,1.67
2023-04-07T03:37:39.494Z,1.61
2023-04-07T03:40:12.304Z,1.55
2023-04-07T03:42:39.160Z,1.54
2023-04-07T03:45:08.199Z,1.49
2023-04-07T03:47:37.861Z,1.52
2023-04-07T03:50:06.844Z,1.59
2023-04-07T03:52:40.679Z,1.60
2023-04-07T03:55:18.054Z,1.67
2023-04-07T03:57:45.533Z,1.72
2023-04-07T04:00:13.267Z,1.74
2023-04-07T04:02:43.518Z,1.76
2023-04-07T04:05:15.521Z,1.82
2023-04-07T04:07:43.238Z,1.87
2023-04-07T04:10:10.813Z,1.99
2023-04-07T04:12:42.151Z,2.02
2023-04-07T04:15:11.703Z,2.10
2023-04-07T04:17:39.810Z,2.22
2023-04-07T04:20:08.131Z,2.37
2023-04-07T04:22:42.436Z,2.52
2023-04-07T04:25:09.880Z,2.69
2023-04-07T04:27:37.186Z,2.81
2023-04-07T04:30:11.162Z,2.88
2023-04-07T04:32:49.870Z,3.08
2023-04-07T04:35:20.751Z,3.29
2023-04-07T04:38:01.181Z,3.50
2023-04-07T04:40:28.283Z,3.69
2023-04-07T04:42:55.422Z,3.85
2023-04-07T04:45:23.082Z,4.05
2023-04-07T04:47:50.884Z,4.27
2023-04-07T04:50:17.792Z,4.43
2023-04-07T04:52:46.583Z,4.58
2023-04-07T04:55:19.869Z,4.70
2023-04-07T04:57:48.129Z,4.78
2023-04-07T05:00:21.230Z,4.94
2023-04-07T05:02:51.527Z,5.12
2023-04-07T05:05:18.791Z,5.32
2023-04-07T05:07:46.038Z,5.52
2023-04-07T05:10:14.728Z,5.66
2023-04-07T05:12:47.574Z,5.80
2023-04-07T05:15:15.843Z,5.92
2023-04-07T05:17:50.587Z,6.13
2023-04-07T05:20:23.039Z,6.28
2023-04-07T05:22:50.472Z,6.42
2023-04-07T05:25:19.596Z,6.58
2023-04-07T05:27:50.571Z,6.81
2023-04-07T05:30:18.366Z,7.00
2023-04-07T05:32:45.701Z,7.07
2023-04-07T05:35:22.160Z,7.15
2023-04-07T05:37:54.607Z,7.29
2023-04-07T05:40:21.801Z,7.46
2023-04-07T05:42:48.749Z,7.57
2023-04-07T05:45:16.142Z,7.61
2023-04-07T05:47:50.080Z,7.78
2023-04-07T05:50:22.876Z,7.87
2023-04-07T05:52:50.891Z,7.93
2023-04-07T05:55:22.982Z,7.97
2023-04-07T05:57:51.034Z,7.99
2023-04-07T06:00:21.674Z,8.18
2023-04-07T06:02:59.160Z,8.40
2023-04-07T06:05:26.724Z,8.47
2023-04-07T06:07:56.274Z,8.57
2023-04-07T06:10:26.748Z,8.71
2023-04-07T06:12:53.649Z,8.81
2023-04-07T06:15:21.240Z,8.92
2023-04-07T06:17:48.749Z,9.05
2023-04-07T06:20:15.704Z,9.17
2023-04-07T06:22:42.641Z,9.33
2023-04-07T06:25:09.830Z,9.55
2023-04-07T06:27:36.867Z,9.69
2023-04-07T06:30:04.174Z,9.78
2023-04-07T06:32:31.796Z,9.89
2023-04-07T06:34:58.798Z,9.96
2023-04-07T06:37:26.260Z,10.05
2023-04-07T06:39:54.518Z,10.11
2023-04-07T06:42:21.387Z,10.17
2023-04-07T06:45:06.531Z,10.26
2023-04-07T06:47:33.435Z,10.39
2023-04-07T06:50:00.374Z,10.48
2023-04-07T06:52:27.352Z,10.54
2023-04-07T06:54:54.283Z,10.68
2023-04-07T06:57:21.301Z,10.92
2023-04-07T06:59:48.433Z,11.06
2023-04-07T07:02:15.720Z,11.13
2023-04-07T07:04:42.679Z,11.09
2023-04-07T07:07:09.656Z,11.19
2023-04-07T07:09:36.672Z,11.31
2023-04-07T07:12:04.384Z,11.40
2023-04-07T07:14:31.361Z,11.52
2023-04-07T07:16:58.345Z,11.62
2023-04-07T07:19:25.347Z,11.70
2023-04-07T07:21:52.385Z,11.70
2023-04-07T07:24:19.368Z,11.59
2023-04-07T07:26:46.678Z,11.58
2023-04-07T07:29:13.633Z,11.63
2023-04-07T07:31:40.685Z,11.64
2023-04-07T07:34:07.612Z,11.43
2023-04-07T07:36:34.584Z,11.36
2023-04-07T07:39:01.462Z,11.37
2023-04-07T07:41:28.460Z,11.42
2023-04-07T07:43:55.510Z,11.38
2023-04-07T07:46:24.520Z,11.31
2023-04-07T07:48:51.726Z,11.34
2023-04-07T07:51:18.715Z,11.44
2023-04-07T07:53:46.219Z,11.44
2023-04-07T07:56:13.464Z,11.51
2023-04-07T07:58:40.515Z,11.59
2023-04-07T08:01:07.652Z,11.60
2023-04-07T08:03:36.211Z,11.67
2023-04-07T08:06:03.523Z,11.65
2023-04-07T08:08:30.487Z,11.68
2023-04-07T08:10:57.372Z,11.72
2023-04-07T08:13:24.295Z,11.72
2023-04-07T08:15:51.128Z,11.79
2023-04-07T08:18:18.049Z,11.85
2023-04-07T08:20:45.031Z,11.98
2023-04-07T08:23:11.974Z,12.06
2023-04-07T08:25:40.300Z,12.21
2023-04-07T08:28:07.194Z,12.28
2023-04-07T08:30:34.197Z,12.34
2023-04-07T08:33:01.272Z,12.38
2023-04-07T08:35:28.344Z,12.52
2023-04-07T08:37:55.178Z,12.44
2023-04-07T08:40:22.139Z,12.46
2023-04-07T08:42:49.339Z,12.58
2023-04-07T08:45:17.084Z,12.65
2023-04-07T08:47:44.197Z,12.72
2023-04-07T08:50:11.819Z,12.58
2023-04-07T08:52:46.961Z,12.66
2023-04-07T08:55:13.955Z,12.62
2023-04-07T08:57:41.781Z,12.61
2023-04-07T09:00:09.283Z,12.67
2023-04-07T09:02:41.247Z,12.82
2023-04-07T09:05:08.937Z,12.79
2023-04-07T09:07:37.097Z,12.75
2023-04-07T09:10:04.699Z,12.81
2023-04-07T09:12:33.862Z,13.07
2023-04-07T09:15:01.019Z,13.15
2023-04-07T09:17:28.556Z,13.22
2023-04-07T09:19:59.652Z,13.16
2023-04-07T09:22:39.933Z,13.13
2023-04-07T09:25:20.168Z,13.15
2023-04-07T09:28:02.997Z,13.17
2023-04-07T09:30:31.364Z,13.13
2023-04-07T09:32:58.745Z,13.16
2023-04-07T09:35:26.622Z,13.11
2023-04-07T09:38:05.325Z,13.22
2023-04-07T09:40:32.579Z,13.30
2023-04-07T09:42:59.749Z,13.24
2023-04-07T09:45:34.687Z,13.25
2023-04-07T09:48:05.746Z,13.24
2023-04-07T09:50:35.214Z,13.25
2023-04-07T09:53:03.296Z,13.38
2023-04-07T09:55:30.424Z,13.48
2023-04-07T09:57:57.572Z,13.50
2023-04-07T10:00:24.975Z,13.51
2023-04-07T10:02:53.276Z,13.51
2023-04-07T10:05:23.252Z,13.54
2023-04-07T10:07:50.641Z,13.40
2023-04-07T10:10:17.795Z,13.48
2023-04-07T10:12:44.717Z,13.50
2023-04-07T10:15:16.066Z,13.59
2023-04-07T10:17:47.166Z,13.62
2023-04-07T10:20:14.990Z,13.69
2023-04-07T10:22:42.165Z,13.62
2023-04-07T10:25:11.644Z,13.70
2023-04-07T10:27:59.549Z,13.70
2023-04-07T10:30:28.603Z,13.79
2023-04-07T10:32:55.867Z,13.82
2023-04-07T10:35:23.747Z,13.93
2023-04-07T10:38:13.685Z,14.00
2023-04-07T10:40:41.638Z,14.04
2023-04-07T10:43:12.021Z,14.07
2023-04-07T10:45:48.950Z,14.10
2023-04-07T10:48:17.221Z,14.27
2023-04-07T10:50:45.483Z,14.16
2023-04-07T10:53:16.288Z,14.13
2023-04-07T10:55:46.502Z,14.20
2023-04-07T10:58:25.985Z,14.37
2023-04-07T11:01:02.025Z,14.34
2023-04-07T11:03:29.747Z,14.18
2023-04-07T11:06:03.945Z,14.26
2023-04-07T11:08:34.255Z,14.29
2023-04-07T11:11:01.261Z,14.27
2023-04-07T11:13:28.486Z,14.28
2023-04-07T11:15:55.596Z,14.30
2023-04-07T11:18:26.118Z,14.26
2023-04-07T11:21:02.674Z,14.31
2023-04-07T11:23:29.644Z,14.33
2023-04-07T11:26:03.276Z,14.40
2023-04-07T11:28:30.560Z,14.42
2023-04-07T11:30:58.388Z,14.34
2023-04-07T11:33:29.914Z,14.33
2023-04-07T11:35:57.781Z,14.41
2023-04-07T11:38:36.071Z,14.41
2023-04-07T11:41:13.318Z,14.41
2023-04-07T11:43:42.578Z,14.54
2023-04-07T11:46:16.729Z,14.51
2023-04-07T11:48:44.723Z,14.36
2023-04-07T11:51:23.903Z,14.33
2023-04-07T11:53:57.416Z,14.25
2023-04-07T11:56:24.456Z,14.39
2023-04-07T11:58:52.921Z,14.34
2023-04-07T12:01:20.153Z,14.33
2023-04-07T12:04:02.156Z,14.29
2023-04-07T12:06:30.956Z,14.42
2023-04-07T12:08:58.164Z,14.36
2023-04-07T12:11:25.410Z,14.28
2023-04-07T12:13:52.873Z,14.21
2023-04-07T12:16:21.250Z,14.24
2023-04-07T12:18:48.403Z,14.27
2023-04-07T12:21:15.859Z,14.32
2023-04-07T12:23:42.932Z,14.28
2023-04-07T12:26:11.936Z,14.30
2023-04-07T12:28:38.976Z,14.34
2023-04-07T12:31:05.871Z,14.29
2023-04-07T12:33:32.782Z,14.28
2023-04-07T12:35:59.827Z,14.03
2023-04-07T12:38:27.130Z,13.88
2023-04-07T12:40:54.139Z,13.91
2023-04-07T12:43:21.077Z,13.92
2023-04-07T12:45:48.081Z,13.93
2023-04-07T12:48:16.904Z,13.95
2023-04-07T12:50:43.752Z,14.01
2023-04-07T12:53:10.710Z,14.00
2023-04-07T12:55:37.672Z,13.82
2023-04-07T12:58:04.853Z,13.90
2023-04-07T13:00:31.890Z,13.98
2023-04-07T13:02:59.025Z,13.71
2023-04-07T13:05:26.224Z,13.44
2023-04-07T13:07:53.124Z,13.43
2023-04-07T13:10:19.996Z,13.42
2023-04-07T13:12:46.976Z,13.35
2023-04-07T13:15:13.934Z,13.26
2023-04-07T13:17:41.131Z,13.15
2023-04-07T13:20:08.451Z,13.02
2023-04-07T13:22:36.069Z,12.81
2023-04-07T13:25:03.407Z,12.83
2023-04-07T13:27:30.544Z,12.96
2023-04-07T13:29:57.544Z,13.04
2023-04-07T13:32:24.618Z,12.94
2023-04-07T13:34:52.936Z,12.75
2023-04-07T13:37:20.037Z,12.50
2023-04-07T13:39:47.056Z,12.41
2023-04-07T13:42:16.875Z,12.46
2023-04-07T13:44:46.496Z,12.43
2023-04-07T13:47:15.094Z,12.28
2023-04-07T13:49:41.899Z,12.31
2023-04-07T13:52:08.844Z,12.16
2023-04-07T13:54:36.043Z,11.87
2023-04-07T13:57:02.972Z,11.71
2023-04-07T13:59:29.891Z,11.51
2023-04-07T14:01:56.866Z,11.37
2023-04-07T14:04:24.571Z,11.46
2023-04-07T14:06:51.564Z,11.40
2023-04-07T14:09:18.454Z,11.29
2023-04-07T14:11:45.472Z,11.24
2023-04-07T14:14:12.443Z,11.15
2023-04-07T14:16:39.407Z,11.11
2023-04-07T14:19:07.195Z,11.11
2023-04-07T14:21:34.073Z,10.96
2023-04-07T14:24:00.987Z,10.80
2023-04-07T14:26:27.871Z,10.69
2023-04-07T14:28:54.783Z,10.67
2023-04-07T14:31:21.920Z,10.62
2023-04-07T14:33:52.098Z,10.59
2023-04-07T14:36:19.337Z,10.55
2023-04-07T14:38:46.319Z,10.40
2023-04-07T14:41:13.302Z,10.38
2023-04-07T14:43:41.215Z,10.33
2023-04-07T14:46:08.445Z,10.29
2023-04-07T14:48:35.420Z,10.26
2023-04-07T14:51:09.724Z,10.17
2023-04-07T14:53:37.021Z,10.12
2023-04-07T14:56:07.060Z,10.07
2023-04-07T14:58:33.969Z,10.00
2023-04-07T15:01:00.855Z,9.97
2023-04-07T15:03:28.156Z,9.89
2023-04-07T15:05:55.502Z,9.81
2023-04-07T15:08:22.520Z,9.77
2023-04-07T15:10:49.517Z,9.78
2023-04-07T15:13:16.480Z,9.74
2023-04-07T15:15:43.389Z,9.68
2023-04-07T15:18:10.364Z,9.59
2023-04-07T15:20:37.458Z,9.48
2023-04-07T15:23:04.342Z,9.41
2023-04-07T15:25:31.359Z,9.35
2023-04-07T15:27:58.231Z,9.25
2023-04-07T15:30:25.452Z,9.16
2023-04-07T15:33:05.128Z,9.11
2023-04-07T15:35:32.150Z,9.04
2023-04-07T15:37:59.106Z,9.01
2023-04-07T15:40:26.260Z,9.01
2023-04-07T15:42:53.115Z,8.98
2023-04-07T15:45:20.040Z,8.89
2023-04-07T15:47:47.012Z,8.80
2023-04-07T15:50:14.013Z,8.68
2023-04-07T15:52:40.855Z,8.55
2023-04-07T15:55:08.240Z,8.47
2023-04-07T15:57:35.133Z,8.37
2023-04-07T16:00:02.099Z,8.29
2023-04-07T16:02:33.279Z,8.17
2023-04-07T16:05:00.303Z,8.08
2023-04-07T16:07:27.536Z,8.02
2023-04-07T16:09:54.475Z,7.95
2023-04-07T16:12:22.483Z,7.86
2023-04-07T16:14:50.404Z,7.79
2023-04-07T16:17:17.391Z,7.74
2023-04-07T16:19:44.334Z,7.68
2023-04-07T16:22:11.260Z,7.64
2023-04-07T16:24:38.161Z,7.57
2023-04-07T16:27:04.991Z,7.50
2023-04-07T16:29:31.925Z,7.42
2023-04-07T16:31:59.448Z,7.34
2023-04-07T16:34:26.352Z,7.25
2023-04-07T16:36:53.270Z,7.15
2023-04-07T16:39:20.268Z,7.09
2023-04-07T16:41:47.212Z,7.03
2023-04-07T16:44:14.101Z,6.97
2023-04-07T16:46:40.972Z,6.90
2023-04-07T16:49:07.838Z,6.84
2023-04-07T16:51:34.715Z,6.78
2023-04-07T16:54:01.641Z,6.75
2023-04-07T16:56:28.696Z,6.72
2023-04-07T16:58:56.502Z,6.71
2023-04-07T17:01:23.615Z,6.69
2023-04-07T17:03:51.669Z,6.68
2023-04-07T17:06:18.792Z,6.66
2023-04-07T17:08:45.774Z,6.64
2023-04-07T17:11:12.788Z,6.61
2023-04-07T17:13:40.395Z,6.62
2023-04-07T17:16:07.642Z,6.61
2023-04-07T17:18:34.510Z,6.56
2023-04-07T17:21:01.531Z,6.51
2023-04-07T17:23:28.502Z,6.53
2023-04-07T17:25:55.571Z,6.51
2023-04-07T17:28:22.610Z,6.47
2023-04-07T17:30:49.721Z,6.39
2023-04-07T17:33:16.628Z,6.32
2023-04-07T17:35:43.641Z,6.26
2023-04-07T17:38:10.675Z,6.28
2023-04-07T17:40:37.633Z,6.27
2023-04-07T17:43:04.711Z,6.17
2023-04-07T17:45:32.035Z,6.11
2023-04-07T17:48:01.677Z,6.06
2023-04-07T17:50:28.664Z,6.01
2023-04-07T17:52:55.567Z,5.93
2023-04-07T17:55:22.599Z,5.90
2023-04-07T17:57:49.810Z,5.92
2023-04-07T18:00:17.114Z,5.84
2023-04-07T18:02:44.270Z,5.75
2023-04-07T18:05:11.940Z,5.65
2023-04-07T18:07:40.131Z,5.54
2023-04-07T18:10:07.927Z,5.47
2023-04-07T18:12:35.462Z,5.37
2023-04-07T18:15:02.658Z,5.36
2023-04-07T18:17:29.748Z,5.31
2023-04-07T18:19:56.689Z,5.27
2023-04-07T18:22:23.817Z,5.29
2023-04-07T18:24:53.669Z,5.28
2023-04-07T18:27:24.068Z,5.26
2023-04-07T18:29:51.888Z,5.24
2023-04-07T18:32:18.794Z,5.20
2023-04-07T18:34:48.833Z,5.10
2023-04-07T18:37:15.674Z,4.96
2023-04-07T18:39:42.768Z,4.84
2023-04-07T18:42:09.779Z,4.76
2023-04-07T18:44:36.680Z,4.63
2023-04-07T18:47:03.595Z,4.54
2023-04-07T18:49:31.139Z,4.46
2023-04-07T18:51:58.083Z,4.41
2023-04-07T18:54:27.147Z,4.35
2023-04-07T18:56:54.690Z,4.33
2023-04-07T18:59:21.932Z,4.31
2023-04-07T19:01:48.922Z,4.26
2023-04-07T19:04:16.722Z,4.20
2023-04-07T19:06:43.642Z,4.16
2023-04-07T19:09:10.555Z,4.12
2023-04-07T19:11:37.621Z,4.09
2023-04-07T19:14:05.852Z,4.03
2023-04-07T19:16:33.940Z,3.93
2023-04-07T19:19:00.786Z,3.89
2023-04-07T19:21:27.792Z,3.84
2023-04-07T19:23:56.551Z,3.78
2023-04-07T19:26:23.380Z,3.79
2023-04-07T19:28:50.375Z,3.79
2023-04-07T19:31:17.375Z,3.79
2023-04-07T19:33:44.311Z,3.80
2023-04-07T19:36:11.246Z,3.73
2023-04-07T19:38:38.281Z,3.69
2023-04-07T19:41:05.336Z,3.64
2023-04-07T19:43:32.328Z,3.59
2023-04-07T19:45:59.308Z,3.53
2023-04-07T19:48:26.642Z,3.47
2023-04-07T19:50:53.593Z,3.41
2023-04-07T19:53:22.023Z,3.36
2023-04-07T19:55:49.273Z,3.29
2023-04-07T19:58:21.138Z,3.24
2023-04-07T20:00:50.763Z,3.24
2023-04-07T20:03:18.426Z,3.21
2023-04-07T20:05:45.470Z,3.21
2023-04-07T20:08:12.429Z,3.21
2023-04-07T20:10:39.273Z,3.15
2023-04-07T20:13:06.526Z,3.11
2023-04-07T20:15:33.472Z,3.05
2023-04-07T20:18:00.456Z,3.01
2023-04-07T20:20:27.284Z,2.97
2023-04-07T20:22:54.332Z,2.94
2023-04-07T20:25:21.277Z,2.88
2023-04-07T20:27:50.042Z,2.85
2023-04-07T20:30:16.992Z,2.82
2023-04-07T20:32:45.997Z,2.80
2023-04-07T20:35:13.162Z,2.77
2023-04-07T20:37:40.122Z,2.77
2023-04-07T20:40:08.398Z,2.78
2023-04-07T20:42:35.805Z,2.82
2023-04-07T20:45:03.819Z,2.87
2023-04-07T20:47:31.433Z,2.89
2023-04-07T20:49:58.824Z,2.85
2023-04-07T20:52:27.408Z,2.86
2023-04-07T20:54:54.409Z,2.85
2023-04-07T20:57:21.254Z,2.84
2023-04-07T20:59:48.153Z,2.83
2023-04-07T21:02:15.178Z,2.82
2023-04-07T21:04:42.071Z,2.81
2023-04-07T21:07:10.586Z,2.80
2023-04-07T21:09:37.480Z,2.87
2023-04-07T21:12:04.467Z,2.89
2023-04-07T21:14:32.100Z,2.96
2023-04-07T21:16:59.287Z,2.98
2023-04-07T21:19:26.453Z,3.10
2023-04-07T21:21:53.528Z,3.17
2023-04-07T21:24:21.379Z,3.31
2023-04-07T21:26:48.315Z,3.48
2023-04-07T21:29:15.458Z,3.56
2023-04-07T21:31:42.853Z,3.63
2023-04-07T21:34:09.814Z,3.68
2023-04-07T21:36:36.723Z,3.72
2023-04-07T21:39:03.973Z,3.75
2023-04-07T21:41:31.018Z,3.81
2023-04-07T21:43:57.984Z,3.83
2023-04-07T21:46:25.114Z,3.83
2023-04-07T21:48:52.042Z,3.80
2023-04-07T21:51:19.274Z,3.79
2023-04-07T21:53:46.322Z,3.80
2023-04-07T21:56:13.770Z,3.79
2023-04-07T21:58:42.083Z,3.74
2023-04-07T22:01:09.055Z,3.75
2023-04-07T22:03:36.244Z,3.75
2023-04-07T22:06:03.427Z,3.73
2023-04-07T22:08:30.454Z,3.71
2023-04-07T22:10:58.899Z,3.71
2023-04-07T22:13:25.835Z,3.71
2023-04-07T22:15:52.857Z,3.67
2023-04-07T22:18:21.560Z,3.65
2023-04-07T22:20:49.153Z,3.64
2023-04-07T22:23:16.099Z,3.65
2023-04-07T22:25:43.022Z,3.66
2023-04-07T22:28:09.926Z,3.62
2023-04-07T22:30:36.884Z,3.66
2023-04-07T22:33:04.643Z,3.66
2023-04-07T22:35:31.715Z,3.63
2023-04-07T22:37:58.739Z,3.58
2023-04-07T22:40:25.702Z,3.57
2023-04-07T22:42:52.688Z,3.57
2023-04-07T22:45:20.755Z,3.56
2023-04-07T22:47:47.707Z,3.60
2023-04-07T22:50:14.697Z,3.59
2023-04-07T22:52:41.668Z,3.54
2023-04-07T22:55:09.022Z,3.56
2023-04-07T22:57:36.341Z,3.58
2023-04-07T23:00:04.360Z,3.61
2023-04-07T23:02:31.757Z,3.62
2023-04-07T23:04:58.828Z,3.63
2023-04-07T23:07:26.249Z,3.59
2023-04-07T23:09:53.262Z,3.57
2023-04-07T23:12:20.259Z,3.54
2023-04-07T23:14:47.232Z,3.50
2023-04-07T23:17:14.167Z,3.48
2023-04-07T23:19:41.143Z,3.47
2023-04-07T23:22:08.012Z,3.44
2023-04-07T23:24:34.933Z,3.42
2023-04-07T23:27:02.185Z,3.44
2023-04-07T23:29:29.169Z,3.43
2023-04-07T23:31:56.703Z,3.43
2023-04-07T23:34:23.546Z,3.40
2023-04-07T23:36:50.531Z,3.32
2023-04-07T23:39:17.363Z,3.29
2023-04-07T23:41:44.252Z,3.26
2023-04-07T23:44:11.172Z,3.23
2023-04-07T23:46:37.984Z,3.21
2023-04-07T23:49:04.850Z,3.23
2023-04-07T23:51:31.818Z,3.26
2023-04-07T23:53:58.664Z,3.26
2023-04-07T23:56:25.703Z,3.19
2023-04-07T23:58:52.625Z,3.19
